Terminal Aerodrome Forecast
Issued by NWS

Current Version | Previous Version | Text Only | Print | Product List | Glossary Off
Versions: 1 2 3 4 5 6 7 8 9 10 11 12 13 14 15 16 17 18

000
FTUS41 KILN 251000 AAD
TAFLUK
TAF AMD
KLUK 251004Z 2510/2606 00000KT 5SM BR SCT250
     FM251300 13005KT P6SM SCT060
     FM260000 12003KT P6SM SCT250=

USA.gov is the U.S. government's official web portal to all federal, state and local government web resources and services.